Time;durP1;ratioP1;P1;durP2;ratioP2;P2;SDS_P1;SDS_P2;PMS_P1;PMS_P2;Temp;Humidity;BMP_temperature;BMP_pressure;BME280_temperature;BME280_humidity;BME280_pressure;Samples;Min_cycle;Max_cycle;Signal;HPM_P1;HPM_P2
2021/09/27 00:00:34;;;;;;;21.33;19.33;;;18.00;99.90;;;;;;4988148;28;20232;-71
2021/09/27 00:03:04;;;;;;;21.07;19.00;;;17.90;99.90;;;;;;4998742;28;20282;-71
2021/09/27 00:05:33;;;;;;;23.53;21.40;;;17.90;99.90;;;;;;4997540;28;20664;-71
2021/09/27 00:08:03;;;;;;;18.33;16.63;;;17.90;99.90;;;;;;4993287;28;20322;-72
2021/09/27 00:10:35;;;;;;;21.90;19.77;;;17.80;99.90;;;;;;4989175;28;20742;-71
2021/09/27 00:13:04;;;;;;;22.50;20.40;;;17.80;99.90;;;;;;4990502;28;20268;-70
2021/09/27 00:15:36;;;;;;;22.07;19.90;;;17.80;99.90;;;;;;4998172;28;20798;-71
2021/09/27 00:18:08;;;;;;;23.57;21.27;;;17.90;99.90;;;;;;4988232;28;20265;-71
2021/09/27 00:20:38;;;;;;;21.73;19.60;;;17.80;99.90;;;;;;4992344;28;20720;-72
2021/09/27 00:23:09;;;;;;;22.73;20.53;;;17.80;99.90;;;;;;4992340;28;20232;-72
2021/09/27 00:25:37;;;;;;;22.73;20.33;;;17.70;99.90;;;;;;4986111;28;20239;-71
2021/09/27 00:28:06;;;;;;;20.53;18.63;;;17.80;99.90;;;;;;4995916;28;20326;-70
2021/09/27 00:30:35;;;;;;;21.83;19.67;;;17.80;99.90;;;;;;4995310;28;20241;-72
2021/09/27 00:33:03;;;;;;;24.80;22.30;;;17.80;99.90;;;;;;4995152;28;20242;-71
2021/09/27 00:35:34;;;;;;;25.47;22.97;;;17.80;99.90;;;;;;4986213;28;20626;-72
2021/09/27 00:38:02;;;;;;;21.57;19.60;;;17.70;99.90;;;;;;4990824;28;20301;-71
2021/09/27 00:40:36;;;;;;;23.20;21.00;;;17.80;99.90;;;;;;4989439;28;20236;-71
2021/09/27 00:43:05;;;;;;;25.07;22.77;;;17.70;99.90;;;;;;4991054;28;20244;-70
2021/09/27 00:45:37;;;;;;;25.57;23.17;;;17.70;99.90;;;;;;4998337;28;20734;-71
2021/09/27 00:48:05;;;;;;;20.90;19.00;;;17.60;99.90;;;;;;4992175;28;20332;-71
2021/09/27 00:50:37;;;;;;;24.83;22.53;;;17.70;99.90;;;;;;4996106;28;20231;-71
2021/09/27 00:53:13;;;;;;;21.80;19.63;;;17.70;99.90;;;;;;5000696;28;20630;-71
2021/09/27 00:55:43;;;;;;;22.37;20.33;;;17.70;99.90;;;;;;4993848;28;20757;-71
2021/09/27 00:58:13;;;;;;;24.70;22.20;;;17.60;99.90;;;;;;4994778;28;20317;-71
2021/09/27 01:00:42;;;;;;;23.77;21.67;;;17.60;99.90;;;;;;4989424;28;20326;-71
2021/09/27 01:03:10;;;;;;;26.63;24.10;;;17.70;99.90;;;;;;4999079;28;20233;-71
2021/09/27 01:05:44;;;;;;;23.10;20.77;;;17.70;99.90;;;;;;4992185;28;20250;-70
2021/09/27 01:08:30;;;;;;;25.87;23.43;;;17.70;99.90;;;;;;4992262;28;20706;-72
2021/09/27 01:11:22;;;;;;;24.70;22.13;;;17.80;99.90;;;;;;4991568;28;20263;-71
2021/09/27 01:14:15;;;;;;;25.30;22.67;;;17.70;99.90;;;;;;4997900;28;20243;-70
2021/09/27 01:16:54;;;;;;;26.77;24.37;;;17.70;99.90;;;;;;4984677;28;20287;-70
2021/09/27 01:20:00;;;;;;;26.03;23.43;;;17.70;99.90;;;;;;4980280;28;20235;-70
2021/09/27 01:22:49;;;;;;;26.43;24.03;;;17.80;99.90;;;;;;4978605;28;20235;-72
2021/09/27 01:25:45;;;;;;;26.47;23.93;;;17.70;99.90;;;;;;4992047;28;20739;-70
2021/09/27 01:28:42;;;;;;;25.40;23.13;;;17.60;99.90;;;;;;4986182;28;20772;-70
2021/09/27 01:31:30;;;;;;;29.50;26.73;;;17.70;99.90;;;;;;4995446;28;20294;-71
2021/09/27 01:34:08;;;;;;;28.40;25.47;;;17.70;99.90;;;;;;4999170;28;20233;-72
2021/09/27 01:36:46;;;;;;;28.23;25.23;;;17.70;99.90;;;;;;4987077;28;20232;-71
2021/09/27 01:39:20;;;;;;;29.10;26.33;;;17.80;99.90;;;;;;4986462;28;20247;-72
2021/09/27 01:42:00;;;;;;;33.07;30.00;;;17.70;99.90;;;;;;4990225;28;20243;-71
2021/09/27 01:44:34;;;;;;;28.23;25.47;;;17.70;99.90;;;;;;4993110;28;20285;-71
2021/09/27 01:47:08;;;;;;;27.07;24.50;;;17.60;99.90;;;;;;4987894;28;20288;-72
2021/09/27 01:49:44;;;;;;;31.20;28.30;;;17.70;99.90;;;;;;4988913;28;20267;-71
2021/09/27 01:52:20;;;;;;;29.73;26.83;;;17.70;99.90;;;;;;4992055;28;20345;-71
2021/09/27 01:54:52;;;;;;;36.90;33.47;;;17.70;99.90;;;;;;4989729;28;20295;-71
2021/09/27 01:57:27;;;;;;;33.13;29.83;;;17.70;99.90;;;;;;4991938;28;20240;-72
2021/09/27 02:02:47;;;;;;;30.67;27.67;;;17.70;99.90;;;;;;4991459;28;20264;-71
2021/09/27 02:05:26;;;;;;;30.93;27.83;;;17.70;99.90;;;;;;4991686;28;20258;-70
2021/09/27 02:08:01;;;;;;;29.47;26.67;;;17.70;99.90;;;;;;4995954;28;20654;-71
2021/09/27 02:10:35;;;;;;;31.37;28.17;;;17.60;99.90;;;;;;4979240;28;20289;-71
2021/09/27 02:13:08;;;;;;;30.73;27.83;;;17.80;99.90;;;;;;4993274;28;20642;-71
2021/09/27 02:15:42;;;;;;;30.57;27.77;;;17.70;99.90;;;;;;4990061;28;20282;-71
2021/09/27 02:18:17;;;;;;;32.80;29.63;;;17.70;99.90;;;;;;4996842;28;20230;-70
2021/09/27 02:20:51;;;;;;;30.33;27.33;;;17.80;99.90;;;;;;4979748;28;20241;-71
2021/09/27 02:23:24;;;;;;;32.47;29.37;;;17.80;99.90;;;;;;4989778;28;20230;-71
2021/09/27 02:25:52;;;;;;;31.37;28.47;;;17.90;99.90;;;;;;4995694;28;20245;-71
2021/09/27 02:28:25;;;;;;;28.27;25.67;;;17.90;99.90;;;;;;4989166;28;20601;-70
2021/09/27 02:31:02;;;;;;;30.20;27.27;;;17.80;99.90;;;;;;4992180;28;20313;-70
2021/09/27 02:33:39;;;;;;;28.47;25.87;;;17.70;99.90;;;;;;4994836;28;20635;-71
2021/09/27 02:36:13;;;;;;;29.57;26.70;;;17.60;99.90;;;;;;4988936;28;20236;-71
2021/09/27 02:38:49;;;;;;;32.10;29.10;;;17.70;99.90;;;;;;4983715;28;20319;-72
2021/09/27 02:41:26;;;;;;;33.17;29.90;;;17.60;99.90;;;;;;4987890;28;20301;-70
2021/09/27 02:43:55;;;;;;;30.07;27.30;;;17.70;99.90;;;;;;4995975;28;20298;-71
2021/09/27 02:46:24;;;;;;;32.63;29.53;;;17.60;99.90;;;;;;4991632;28;20247;-71
2021/09/27 02:48:57;;;;;;;31.87;29.07;;;17.60;99.90;;;;;;4992752;28;20239;-71
2021/09/27 02:51:29;;;;;;;30.00;27.10;;;17.60;99.90;;;;;;4992428;28;20671;-70
2021/09/27 02:53:57;;;;;;;31.07;28.17;;;17.50;99.90;;;;;;4994477;28;20255;-70
2021/09/27 02:56:48;;;;;;;34.67;31.30;;;17.50;99.90;;;;;;4991823;28;20579;-71
2021/09/27 02:59:25;;;;;;;35.33;31.93;;;17.70;99.90;;;;;;4987990;28;20618;-70
2021/09/27 03:02:05;;;;;;;33.53;30.20;;;17.70;99.90;;;;;;4991137;28;20250;-71
2021/09/27 03:04:45;;;;;;;37.43;33.87;;;17.60;99.90;;;;;;4983448;28;20759;-70
2021/09/27 03:07:25;;;;;;;31.70;28.73;;;17.70;99.90;;;;;;5008575;28;20308;-70
2021/09/27 03:10:08;;;;;;;32.53;29.43;;;17.60;99.90;;;;;;4991973;28;20664;-71
2021/09/27 03:12:41;;;;;;;33.20;30.00;;;17.60;99.90;;;;;;4992946;28;20244;-70
2021/09/27 03:15:36;;;;;;;34.63;31.33;;;17.50;99.90;;;;;;4992002;28;20244;-71
2021/09/27 03:18:10;;;;;;;35.80;32.30;;;17.60;99.90;;;;;;4992082;28;20266;-70
2021/09/27 03:21:08;;;;;;;32.70;29.57;;;17.50;99.90;;;;;;4994082;28;20246;-71
2021/09/27 03:23:46;;;;;;;35.23;31.77;;;17.60;99.90;;;;;;4994576;28;20646;-71
2021/09/27 03:26:32;;;;;;;35.00;31.60;;;17.60;99.90;;;;;;4998581;28;20337;-71
2021/09/27 03:29:11;;;;;;;33.60;30.30;;;17.50;99.90;;;;;;5001550;28;20240;-70
2021/09/27 03:31:48;;;;;;;32.93;29.87;;;17.70;99.90;;;;;;4987869;28;20239;-70
2021/09/27 03:34:28;;;;;;;32.87;29.77;;;17.70;99.90;;;;;;5002767;28;20314;-71
2021/09/27 03:37:21;;;;;;;36.50;33.00;;;17.60;99.90;;;;;;4980840;28;20245;-70
2021/09/27 03:40:02;;;;;;;32.23;29.23;;;17.60;99.90;;;;;;4987785;28;20515;-70
2021/09/27 03:42:39;;;;;;;32.87;29.83;;;17.60;99.90;;;;;;4983967;28;20317;-71
2021/09/27 03:45:13;;;;;;;31.53;28.53;;;17.60;99.90;;;;;;4995710;28;20281;-71
2021/09/27 03:47:50;;;;;;;34.23;30.93;;;17.50;99.90;;;;;;4988074;28;20254;-71
2021/09/27 03:50:23;;;;;;;34.17;31.00;;;17.50;99.90;;;;;;4992621;28;20646;-70
2021/09/27 03:52:55;;;;;;;34.53;31.23;;;17.50;99.90;;;;;;4989901;28;20295;-70
2021/09/27 03:55:34;;;;;;;39.60;35.73;;;17.60;99.90;;;;;;4992617;28;20700;-70
2021/09/27 03:58:07;;;;;;;34.33;30.93;;;17.50;99.90;;;;;;4994210;28;20512;-70
2021/09/27 04:00:43;;;;;;;35.77;32.37;;;17.50;99.90;;;;;;4987563;28;20254;-70
2021/09/27 04:03:34;;;;;;;35.87;32.37;;;17.50;99.90;;;;;;4996011;28;20246;-70
2021/09/27 04:06:17;;;;;;;34.80;31.40;;;17.50;99.90;;;;;;4987146;28;20282;-70
2021/09/27 04:08:55;;;;;;;33.80;30.50;;;17.50;99.90;;;;;;4989160;28;20275;-70
2021/09/27 04:11:44;;;;;;;35.37;32.07;;;17.50;99.90;;;;;;4993730;28;20749;-70
2021/09/27 04:14:26;;;;;;;36.77;33.10;;;17.50;99.90;;;;;;4989378;28;20236;-70
2021/09/27 04:17:03;;;;;;;36.00;32.50;;;17.50;99.90;;;;;;4993574;28;20330;-71
2021/09/27 04:19:38;;;;;;;32.50;29.27;;;17.40;99.90;;;;;;4991080;28;20654;-71
2021/09/27 04:22:13;;;;;;;35.67;32.17;;;17.50;99.90;;;;;;4999363;28;20689;-70
2021/09/27 04:24:56;;;;;;;35.17;31.60;;;17.50;99.90;;;;;;4996824;28;20266;-71
2021/09/27 04:27:38;;;;;;;33.73;30.37;;;17.50;99.90;;;;;;5002161;28;20638;-70
2021/09/27 04:30:19;;;;;;;32.27;29.13;;;17.40;99.90;;;;;;4995724;28;20242;-71
2021/09/27 04:33:16;;;;;;;35.83;32.03;;;17.40;99.90;;;;;;4991437;28;20301;-70
2021/09/27 04:35:52;;;;;;;34.50;31.10;;;17.50;99.90;;;;;;4991923;28;21295;-71
2021/09/27 04:38:21;;;;;;;35.03;31.53;;;17.50;99.90;;;;;;4997412;28;20249;-70
2021/09/27 04:41:10;;;;;;;39.23;35.40;;;17.50;99.90;;;;;;4994524;28;20249;-69
2021/09/27 04:43:52;;;;;;;35.97;32.27;;;17.50;99.90;;;;;;4994914;28;20368;-70
2021/09/27 04:46:27;;;;;;;37.77;33.97;;;17.50;99.90;;;;;;4998235;28;20328;-70
2021/09/27 04:49:04;;;;;;;35.00;31.50;;;17.50;99.90;;;;;;4979565;28;20808;-71
2021/09/27 04:51:52;;;;;;;36.83;32.90;;;17.40;99.90;;;;;;4985063;28;20235;-70
2021/09/27 04:54:44;;;;;;;34.90;31.40;;;17.40;99.90;;;;;;4988567;28;20711;-70
2021/09/27 04:57:25;;;;;;;33.17;29.97;;;17.40;99.90;;;;;;4988749;28;20234;-69
2021/09/27 05:00:06;;;;;;;32.00;28.73;;;17.40;99.90;;;;;;4993066;28;20239;-70
2021/09/27 05:03:26;;;;;;;34.60;31.30;;;17.40;99.90;;;;;;4987913;28;20240;-70
2021/09/27 05:06:10;;;;;;;34.40;31.00;;;17.40;99.90;;;;;;4981766;28;20264;-71
2021/09/27 05:09:01;;;;;;;33.70;30.37;;;17.40;99.90;;;;;;4980743;28;20232;-70
2021/09/27 05:12:05;;;;;;;31.23;28.20;;;17.40;99.90;;;;;;4994459;28;20784;-70
2021/09/27 05:15:08;;;;;;;30.50;27.50;;;17.40;99.90;;;;;;4989182;28;20278;-70
2021/09/27 05:18:00;;;;;;;30.53;27.63;;;17.40;99.90;;;;;;4953609;28;20526;-70
2021/09/27 05:20:51;;;;;;;34.43;30.93;;;17.30;99.90;;;;;;4999000;28;20700;-70
2021/09/27 05:23:25;;;;;;;30.90;27.80;;;17.30;99.90;;;;;;4995289;28;20245;-71
2021/09/27 05:26:32;;;;;;;36.93;33.03;;;17.30;99.90;;;;;;4991048;28;20237;-70
2021/09/27 05:29:16;;;;;;;29.93;26.97;;;17.30;99.90;;;;;;4987053;28;20228;-70
2021/09/27 05:32:09;;;;;;;32.93;29.70;;;17.30;99.90;;;;;;4986869;28;20278;-71
2021/09/27 05:34:47;;;;;;;30.67;27.57;;;17.20;99.90;;;;;;4984990;28;20246;-69
2021/09/27 05:37:33;;;;;;;31.60;28.40;;;17.40;99.90;;;;;;4994496;28;20584;-70
2021/09/27 05:40:23;;;;;;;30.63;27.63;;;17.40;99.90;;;;;;4983462;28;20761;-69
2021/09/27 05:43:24;;;;;;;30.77;27.67;;;17.30;99.90;;;;;;4988151;28;20242;-69
2021/09/27 05:46:06;;;;;;;30.13;27.17;;;17.30;99.90;;;;;;4989982;28;20274;-69
2021/09/27 05:48:44;;;;;;;32.40;29.20;;;17.30;99.90;;;;;;4976618;28;20235;-70
2021/09/27 05:51:16;;;;;;;33.47;30.13;;;17.30;99.90;;;;;;4998361;28;20267;-70
2021/09/27 05:53:58;;;;;;;33.90;30.37;;;17.30;99.90;;;;;;4985098;28;20239;-69
2021/09/27 05:56:33;;;;;;;32.93;29.60;;;17.20;99.90;;;;;;4986221;28;20322;-69
2021/09/27 05:59:10;;;;;;;31.93;28.93;;;17.30;99.90;;;;;;4991183;28;20316;-70
2021/09/27 06:01:54;;;;;;;29.90;26.97;;;17.20;99.90;;;;;;4992414;28;20358;-69
2021/09/27 06:04:28;;;;;;;33.37;30.03;;;17.20;99.90;;;;;;4988009;28;20696;-69
2021/09/27 06:07:04;;;;;;;30.77;27.77;;;17.20;99.90;;;;;;4988055;28;20344;-69
2021/09/27 06:09:52;;;;;;;30.37;27.07;;;17.20;99.90;;;;;;4994069;28;20248;-69
2021/09/27 06:12:26;;;;;;;30.30;27.20;;;17.20;99.90;;;;;;4987261;28;20266;-70
2021/09/27 06:14:59;;;;;;;22.23;20.10;;;17.20;99.90;;;;;;4989226;28;20578;-69
2021/09/27 06:17:46;;;;;;;30.87;25.87;;;17.60;99.90;;;;;;4989148;28;20265;-70
2021/09/27 06:20:21;;;;;;;34.97;31.43;;;17.70;99.90;;;;;;4984648;28;20296;-70
2021/09/27 06:23:04;;;;;;;29.83;26.83;;;17.60;99.90;;;;;;4991508;28;20239;-70
2021/09/27 06:25:39;;;;;;;32.57;29.20;;;17.50;99.90;;;;;;4987659;28;20245;-69
2021/09/27 06:28:18;;;;;;;32.43;29.00;;;17.50;99.90;;;;;;4989238;28;20765;-69
2021/09/27 06:30:52;;;;;;;29.47;26.43;;;17.40;99.90;;;;;;4994479;28;20237;-70
2021/09/27 06:33:26;;;;;;;30.57;27.53;;;17.40;99.90;;;;;;4988222;28;20662;-69
2021/09/27 06:35:57;;;;;;;29.63;26.73;;;17.40;99.90;;;;;;4991456;28;20251;-69
2021/09/27 06:38:29;;;;;;;28.63;25.70;;;17.40;99.90;;;;;;4988077;28;20601;-70
2021/09/27 06:40:59;;;;;;;32.10;29.00;;;17.40;99.90;;;;;;4986971;28;20240;-70
2021/09/27 06:43:28;;;;;;;30.93;27.83;;;17.50;99.90;;;;;;4994091;28;20244;-70
2021/09/27 06:45:57;;;;;;;31.53;28.20;;;17.40;99.90;;;;;;4989634;28;20251;-70
2021/09/27 06:48:26;;;;;;;30.50;27.43;;;17.40;99.90;;;;;;4989736;28;20491;-69
2021/09/27 06:50:57;;;;;;;31.00;27.87;;;17.50;99.90;;;;;;4985835;28;20239;-70
2021/09/27 06:53:25;;;;;;;32.17;28.93;;;17.50;99.90;;;;;;4990974;28;20721;-69
2021/09/27 06:55:54;;;;;;;31.87;28.63;;;17.60;99.90;;;;;;4985334;28;20657;-69
2021/09/27 06:58:23;;;;;;;33.10;29.53;;;17.60;99.90;;;;;;4990298;28;20735;-70
2021/09/27 07:00:52;;;;;;;32.70;28.80;;;17.60;99.90;;;;;;4994061;28;20248;-70
2021/09/27 07:03:20;;;;;;;34.50;30.93;;;17.60;99.90;;;;;;4988474;28;20320;-70
2021/09/27 07:05:49;;;;;;;34.37;30.93;;;17.60;99.90;;;;;;4996281;28;20332;-69
2021/09/27 07:08:19;;;;;;;34.97;31.43;;;17.60;99.90;;;;;;4990335;28;20326;-69
2021/09/27 07:10:48;;;;;;;32.47;29.27;;;17.70;99.90;;;;;;4989490;28;20541;-69
2021/09/27 07:13:17;;;;;;;32.30;29.00;;;17.70;99.90;;;;;;4992180;28;20242;-69
2021/09/27 07:15:45;;;;;;;32.60;29.33;;;17.80;99.90;;;;;;4989046;28;20273;-69
2021/09/27 07:18:14;;;;;;;35.27;31.67;;;17.80;99.90;;;;;;4990674;28;20252;-69
2021/09/27 07:20:42;;;;;;;34.50;31.00;;;17.80;99.90;;;;;;4987102;28;20348;-70
2021/09/27 07:23:10;;;;;;;34.00;30.33;;;17.80;99.90;;;;;;4988978;28;20239;-69
2021/09/27 07:25:40;;;;;;;34.27;30.67;;;17.90;99.90;;;;;;4995049;28;20267;-69
2021/09/27 07:28:09;;;;;;;34.20;30.70;;;17.90;99.90;;;;;;4990032;28;20617;-69
2021/09/27 07:30:44;;;;;;;32.00;28.73;;;17.80;99.90;;;;;;4984927;28;20466;-70
2021/09/27 07:33:12;;;;;;;37.50;32.87;;;17.80;99.90;;;;;;4990075;28;20252;-69
2021/09/27 07:35:40;;;;;;;34.17;30.47;;;17.80;99.90;;;;;;4985419;28;20250;-70
2021/09/27 07:38:08;;;;;;;34.10;30.33;;;17.80;99.90;;;;;;4987736;28;20244;-69
2021/09/27 07:40:38;;;;;;;33.87;30.20;;;17.80;99.90;;;;;;4979770;28;20238;-69
2021/09/27 07:43:09;;;;;;;34.60;30.77;;;17.90;99.90;;;;;;4994284;28;20298;-69
2021/09/27 07:45:37;;;;;;;33.17;29.77;;;17.90;99.90;;;;;;4989047;28;20288;-69
2021/09/27 07:48:10;;;;;;;41.53;33.57;;;17.90;99.90;;;;;;4992671;28;20641;-70
2021/09/27 07:50:39;;;;;;;34.47;31.03;;;18.00;99.90;;;;;;4983207;28;20651;-69
2021/09/27 07:53:07;;;;;;;36.23;32.33;;;17.90;99.90;;;;;;4992390;28;20239;-69
2021/09/27 07:55:35;;;;;;;33.03;29.43;;;17.90;99.90;;;;;;4995140;28;20322;-70
2021/09/27 07:58:03;;;;;;;38.40;34.33;;;17.90;99.90;;;;;;4990458;28;20241;-69
2021/09/27 08:00:34;;;;;;;36.40;31.87;;;18.00;99.90;;;;;;4992341;28;20247;-70
2021/09/27 08:03:02;;;;;;;37.73;33.00;;;18.00;99.90;;;;;;4992353;28;21958;-70
2021/09/27 08:05:33;;;;;;;38.70;34.20;;;18.00;99.90;;;;;;4982890;28;20298;-69
2021/09/27 08:08:02;;;;;;;35.60;31.77;;;18.10;99.90;;;;;;4991615;28;20247;-70
2021/09/27 08:10:32;;;;;;;34.47;30.77;;;18.10;99.90;;;;;;5005967;28;20244;-69
2021/09/27 08:13:02;;;;;;;34.70;31.13;;;18.20;99.90;;;;;;4993789;28;20292;-69
2021/09/27 08:15:34;;;;;;;36.07;31.77;;;18.30;99.90;;;;;;4992611;28;20229;-69
2021/09/27 08:18:05;;;;;;;37.27;33.37;;;18.40;99.90;;;;;;4995924;28;20262;-69
2021/09/27 08:20:36;;;;;;;34.63;30.20;;;18.50;99.90;;;;;;4986616;28;20246;-70
2021/09/27 08:23:04;;;;;;;33.27;29.67;;;18.50;99.90;;;;;;4985768;28;20243;-69
2021/09/27 08:25:33;;;;;;;33.47;29.33;;;18.50;99.90;;;;;;4992111;28;20248;-69
2021/09/27 08:28:01;;;;;;;33.60;30.13;;;18.60;99.90;;;;;;4981868;28;20323;-69
2021/09/27 08:30:35;;;;;;;33.87;29.93;;;18.70;99.90;;;;;;4988003;28;20228;-70
2021/09/27 08:33:06;;;;;;;33.60;29.17;;;18.80;99.90;;;;;;4995438;28;20777;-69
2021/09/27 08:35:34;;;;;;;31.23;28.07;;;19.00;99.90;;;;;;4988288;28;20260;-69
2021/09/27 08:38:05;;;;;;;32.67;29.23;;;19.00;99.90;;;;;;4991130;28;20244;-70
2021/09/27 08:40:58;;;;;;;30.57;27.23;;;19.20;99.90;;;;;;4982549;28;20286;-69
2021/09/27 08:43:58;;;;;;;33.17;29.67;;;19.30;99.90;;;;;;4985509;28;20899;-69
2021/09/27 08:46:32;;;;;;;32.43;28.97;;;19.40;99.90;;;;;;4992983;28;20678;-69
2021/09/27 08:49:12;;;;;;;32.10;28.80;;;19.50;99.90;;;;;;4992026;28;20248;-69
2021/09/27 08:51:41;;;;;;;29.63;26.60;;;19.60;99.90;;;;;;4986575;28;20286;-70
2021/09/27 08:54:13;;;;;;;32.13;28.83;;;19.80;99.90;;;;;;4995718;28;20240;-70
2021/09/27 08:56:49;;;;;;;31.43;28.03;;;19.90;99.90;;;;;;4993095;28;20245;-70
2021/09/27 08:59:29;;;;;;;28.47;25.53;;;20.20;99.90;;;;;;4990458;28;20721;-69
2021/09/27 09:02:07;;;;;;;29.73;26.73;;;20.50;99.90;;;;;;4996474;28;20263;-70
2021/09/27 09:04:43;;;;;;;28.90;26.10;;;20.90;99.90;;;;;;4984515;28;20241;-70
2021/09/27 09:07:16;;;;;;;27.27;24.57;;;21.20;99.90;;;;;;4990427;28;20328;-69
2021/09/27 09:09:49;;;;;;;27.90;25.03;;;21.30;99.90;;;;;;4982310;28;20606;-69
2021/09/27 09:12:24;;;;;;;27.57;24.70;;;21.30;99.90;;;;;;4987972;28;20298;-69
2021/09/27 09:15:03;;;;;;;30.00;27.03;;;21.20;99.90;;;;;;4991509;28;20332;-69
2021/09/27 09:17:37;;;;;;;28.63;25.57;;;21.10;99.90;;;;;;4985123;28;20321;-69
2021/09/27 09:20:13;;;;;;;26.63;24.03;;;21.20;99.90;;;;;;4999283;28;20615;-69
2021/09/27 09:22:44;;;;;;;27.73;24.93;;;21.20;99.90;;;;;;4990195;28;20327;-69
2021/09/27 09:25:25;;;;;;;26.50;23.90;;;21.20;99.90;;;;;;4990609;28;20228;-69
2021/09/27 09:27:54;;;;;;;27.20;24.30;;;21.20;99.90;;;;;;4992374;28;20782;-69
2021/09/27 09:30:27;;;;;;;24.37;21.87;;;21.30;99.90;;;;;;4978975;28;20262;-69
2021/09/27 09:32:57;;;;;;;26.10;23.23;;;21.30;99.90;;;;;;4988574;28;20547;-69
2021/09/27 09:35:27;;;;;;;26.17;23.47;;;21.30;99.90;;;;;;4981811;28;20238;-69
2021/09/27 09:38:05;;;;;;;26.17;22.83;;;21.30;99.90;;;;;;4991271;28;20292;-69
2021/09/27 09:40:35;;;;;;;23.90;21.40;;;21.20;99.90;;;;;;4974915;28;20605;-69
2021/09/27 09:43:08;;;;;;;24.00;21.70;;;21.10;99.90;;;;;;4979636;28;20307;-69
2021/09/27 09:45:39;;;;;;;24.03;21.43;;;21.00;99.90;;;;;;4973963;28;20265;-69
2021/09/27 09:48:19;;;;;;;24.80;22.37;;;21.00;99.90;;;;;;4978227;28;20241;-69
2021/09/27 09:50:50;;;;;;;23.70;21.30;;;21.10;99.90;;;;;;4973270;28;20327;-69
2021/09/27 09:53:25;;;;;;;22.27;20.13;;;21.10;99.90;;;;;;4981398;28;20271;-69
2021/09/27 09:56:07;;;;;;;22.20;19.83;;;21.10;99.90;;;;;;1659515;28;10023511;-69
2021/09/27 09:58:42;;;;;;;21.97;19.97;;;21.00;99.90;;;;;;4632808;28;10001552;-69
2021/09/27 10:01:19;;;;;;;22.60;20.30;;;21.00;99.90;;;;;;4973343;28;20267;-69
2021/09/27 10:04:00;;;;;;;20.57;18.40;;;21.10;99.90;;;;;;4972808;28;20229;-69
2021/09/27 10:06:33;;;;;;;19.17;17.27;;;21.20;99.90;;;;;;4972628;28;20355;-69
2021/09/27 10:09:05;;;;;;;19.23;17.23;;;21.30;99.90;;;;;;4976873;28;20259;-69
2021/09/27 10:11:37;;;;;;;19.40;16.70;;;21.20;99.90;;;;;;4982548;28;20437;-69
2021/09/27 10:14:21;;;;;;;18.43;16.53;;;21.20;99.90;;;;;;4977359;28;20653;-69
2021/09/27 10:16:52;;;;;;;18.80;17.03;;;21.40;99.90;;;;;;4967754;28;20401;-70
2021/09/27 10:19:30;;;;;;;16.80;15.07;;;21.60;99.90;;;;;;4972277;28;20324;-69
2021/09/27 10:22:01;;;;;;;17.80;15.97;;;22.00;99.90;;;;;;4978861;28;20705;-69
2021/09/27 10:24:36;;;;;;;16.83;15.13;;;22.30;99.90;;;;;;4980973;28;21000;-69
2021/09/27 10:27:17;;;;;;;17.47;15.77;;;22.50;99.90;;;;;;4970477;28;20342;-69
2021/09/27 10:29:46;;;;;;;16.17;14.67;;;22.40;99.90;;;;;;4985837;28;20261;-69
2021/09/27 10:32:28;;;;;;;16.67;15.07;;;22.30;99.90;;;;;;4980738;28;20232;-69
2021/09/27 10:34:59;;;;;;;17.17;15.57;;;22.30;99.90;;;;;;4978378;28;20292;-70
2021/09/27 10:37:29;;;;;;;17.70;15.57;;;22.30;99.90;;;;;;4977650;28;20782;-69
2021/09/27 10:39:58;;;;;;;16.60;14.93;;;22.80;99.90;;;;;;4980313;28;20241;-70
2021/09/27 10:42:39;;;;;;;18.13;16.03;;;23.00;99.90;;;;;;4974742;28;20238;-69
2021/09/27 10:45:10;;;;;;;17.87;16.17;;;22.90;99.90;;;;;;4975952;28;20238;-70
2021/09/27 10:47:43;;;;;;;18.13;16.23;;;22.60;99.90;;;;;;4975764;28;20234;-70
2021/09/27 10:50:16;;;;;;;18.37;16.60;;;22.30;99.90;;;;;;4978581;28;20234;-69
2021/09/27 10:52:55;;;;;;;19.20;17.30;;;22.20;99.90;;;;;;4974428;28;20678;-69
2021/09/27 10:55:27;;;;;;;18.23;16.43;;;22.30;99.90;;;;;;4979609;28;20557;-69
2021/09/27 10:57:58;;;;;;;21.73;17.97;;;22.60;99.90;;;;;;4979507;28;20305;-70
2021/09/27 11:00:34;;;;;;;17.60;16.00;;;22.30;99.90;;;;;;4982513;28;20621;-70
2021/09/27 11:03:09;;;;;;;20.60;18.60;;;22.40;99.90;;;;;;4979245;28;20270;-69
2021/09/27 11:05:54;;;;;;;19.43;17.47;;;22.40;99.90;;;;;;4976492;28;20242;-69
2021/09/27 11:08:53;;;;;;;19.43;17.43;;;22.60;99.90;;;;;;4979531;28;20252;-69
2021/09/27 11:11:42;;;;;;;18.77;17.00;;;23.10;99.90;;;;;;4967009;28;20689;-70
2021/09/27 11:14:22;;;;;;;17.20;15.50;;;23.50;99.90;;;;;;4982150;28;20239;-69
2021/09/27 11:17:11;;;;;;;18.30;16.50;;;23.60;99.90;;;;;;4981027;28;20670;-69
2021/09/27 11:19:42;;;;;;;17.30;15.80;;;23.50;99.90;;;;;;4970971;28;20639;-69
2021/09/27 11:22:43;;;;;;;16.83;15.23;;;23.30;99.90;;;;;;4980057;28;20276;-69
2021/09/27 11:25:35;;;;;;;18.33;16.53;;;23.20;99.90;;;;;;4978087;28;20245;-69
2021/09/27 11:28:28;;;;;;;18.13;16.37;;;23.10;99.90;;;;;;4982221;28;20248;-69
2021/09/27 11:31:19;;;;;;;15.57;14.10;;;23.10;99.90;;;;;;4980136;28;20394;-69
2021/09/27 11:33:51;;;;;;;14.63;13.17;;;23.10;99.90;;;;;;4985252;28;20242;-69
2021/09/27 11:36:34;;;;;;;13.87;12.03;;;23.20;99.90;;;;;;4985558;28;20320;-69
2021/09/27 11:39:24;;;;;;;13.57;12.37;;;23.30;99.90;;;;;;4985872;28;20721;-68
2021/09/27 11:42:15;;;;;;;14.07;12.73;;;23.50;99.90;;;;;;4988155;28;20260;-69
2021/09/27 11:44:54;;;;;;;14.03;12.77;;;23.70;99.90;;;;;;4988577;28;20775;-69
2021/09/27 11:47:46;;;;;;;14.80;13.43;;;23.80;99.90;;;;;;4987680;28;20299;-69
2021/09/27 11:51:06;;;;;;;13.67;12.27;;;23.70;99.90;;;;;;4985235;28;20241;-69
2021/09/27 11:53:47;;;;;;;12.97;11.70;;;23.80;99.90;;;;;;4987294;28;20240;-69
2021/09/27 11:56:21;;;;;;;14.97;13.43;;;23.70;99.90;;;;;;4988644;28;20810;-69
2021/09/27 11:58:55;;;;;;;14.27;12.80;;;23.60;99.90;;;;;;4985538;28;20252;-69
2021/09/27 12:01:36;;;;;;;13.40;12.17;;;23.50;99.90;;;;;;4988700;28;20244;-69
2021/09/27 12:04:19;;;;;;;13.83;12.53;;;23.60;99.90;;;;;;4988796;28;20621;-69
2021/09/27 12:06:55;;;;;;;11.93;10.93;;;23.40;99.90;;;;;;4985991;28;20709;-69
2021/09/27 12:09:32;;;;;;;13.50;12.30;;;23.40;99.90;;;;;;4982876;28;20246;-69
2021/09/27 12:12:03;;;;;;;13.97;12.60;;;23.10;99.90;;;;;;4985941;28;20234;-69
2021/09/27 12:14:38;;;;;;;14.17;12.83;;;23.00;99.90;;;;;;4980823;28;20253;-69
2021/09/27 12:17:09;;;;;;;12.93;11.73;;;22.90;99.90;;;;;;4981914;28;20277;-69
2021/09/27 12:19:47;;;;;;;13.17;11.17;;;22.80;99.90;;;;;;4985118;28;20237;-69
2021/09/27 12:22:21;;;;;;;11.50;10.43;;;22.70;99.90;;;;;;4978512;28;20654;-69
2021/09/27 12:24:51;;;;;;;10.90;9.80;;;22.60;99.90;;;;;;4984479;28;20757;-69
2021/09/27 12:27:24;;;;;;;11.87;10.60;;;22.60;99.90;;;;;;4985261;28;20649;-69
2021/09/27 12:29:56;;;;;;;11.77;10.17;;;22.50;99.90;;;;;;4980235;28;20622;-69
2021/09/27 12:32:31;;;;;;;12.43;11.13;;;22.30;99.90;;;;;;4978226;28;20675;-69
2021/09/27 12:35:00;;;;;;;11.50;10.33;;;22.30;99.90;;;;;;4984221;28;20319;-69
2021/09/27 12:37:35;;;;;;;12.43;9.70;;;22.40;99.90;;;;;;4977179;28;20233;-69
2021/09/27 12:40:05;;;;;;;12.10;10.90;;;22.60;99.90;;;;;;4983883;28;20237;-69
2021/09/27 12:42:40;;;;;;;11.23;10.13;;;22.70;99.90;;;;;;4985015;28;20242;-69
2021/09/27 12:45:15;;;;;;;12.23;10.93;;;22.80;99.90;;;;;;4973093;28;20252;-69
2021/09/27 12:47:45;;;;;;;12.97;10.63;;;22.70;99.90;;;;;;4975918;28;20243;-69
2021/09/27 12:50:16;;;;;;;10.73;9.63;;;22.80;99.90;;;;;;4976948;28;20255;-69
2021/09/27 12:52:49;;;;;;;10.73;9.63;;;22.90;99.90;;;;;;4977858;28;20261;-69
2021/09/27 12:55:22;;;;;;;11.60;10.13;;;23.10;99.90;;;;;;4978414;28;20836;-69
2021/09/27 12:57:55;;;;;;;10.90;9.43;;;23.10;99.90;;;;;;4979661;28;20701;-69
2021/09/27 13:00:30;;;;;;;13.03;10.73;;;23.10;99.90;;;;;;4978702;28;20236;-69
2021/09/27 13:02:59;;;;;;;11.00;9.70;;;23.10;99.90;;;;;;4975511;28;20249;-69
2021/09/27 13:05:29;;;;;;;11.60;9.60;;;22.90;99.90;;;;;;4984115;28;20233;-69
2021/09/27 13:07:59;;;;;;;12.53;8.93;;;22.80;99.90;;;;;;4977827;28;20558;-69
2021/09/27 13:10:31;;;;;;;10.03;9.07;;;22.80;99.90;;;;;;4979653;28;20235;-69
2021/09/27 13:13:12;;;;;;;11.80;9.17;;;22.70;99.90;;;;;;4970330;28;20328;-68
2021/09/27 13:15:43;;;;;;;12.37;9.77;;;22.60;99.90;;;;;;4978829;28;20321;-69
2021/09/27 13:18:14;;;;;;;10.03;9.00;;;22.60;99.90;;;;;;4977552;28;20240;-69